createdAt,value
2023-01-18T00:01:38.165Z,19.38
2023-01-18T00:04:08.032Z,18.73
2023-01-18T00:06:37.920Z,18.88
2023-01-18T00:09:07.814Z,18.15
2023-01-18T00:11:37.654Z,18.48
2023-01-18T00:14:10.536Z,18.45
2023-01-18T00:16:40.456Z,17.73
2023-01-18T00:19:13.208Z,17.90
2023-01-18T00:21:43.853Z,17.38
2023-01-18T00:24:15.188Z,17.30
2023-01-18T00:26:46.194Z,19.13
2023-01-18T00:29:19.274Z,18.40
2023-01-18T00:31:49.446Z,16.77
2023-01-18T00:34:19.403Z,17.95
2023-01-18T00:36:51.821Z,16.27
2023-01-18T00:39:21.680Z,16.17
2023-01-18T00:42:03.832Z,15.90
2023-01-18T00:44:36.310Z,14.32
2023-01-18T00:47:06.154Z,12.95
2023-01-18T00:49:36.048Z,11.55
2023-01-18T00:52:06.161Z,11.45
2023-01-18T00:54:35.993Z,11.98
2023-01-18T00:57:06.064Z,12.05
2023-01-18T00:59:38.485Z,12.05
2023-01-18T01:02:08.469Z,11.15
2023-01-18T01:04:50.924Z,11.50
2023-01-18T01:07:20.790Z,10.75
2023-01-18T01:09:50.633Z,10.57
2023-01-18T01:12:32.991Z,10.45
2023-01-18T01:15:17.952Z,10.07
2023-01-18T01:18:00.359Z,9.90
2023-01-18T01:20:44.352Z,9.82
2023-01-18T01:23:30.265Z,7.93
2023-01-18T01:26:07.871Z,10.07
2023-01-18T01:28:38.316Z,9.15
2023-01-18T01:31:13.752Z,9.50
2023-01-18T01:33:44.175Z,10.38
2023-01-18T01:36:16.825Z,9.98
2023-01-18T01:38:47.013Z,9.25
2023-01-18T01:41:20.153Z,8.57
2023-01-18T01:43:52.475Z,11.00
2023-01-18T01:46:42.230Z,9.10
2023-01-18T01:49:16.857Z,9.30
2023-01-18T01:54:24.703Z,8.52
2023-01-18T01:57:00.553Z,7.68
2023-01-18T01:59:30.436Z,8.68
2023-01-18T02:02:04.005Z,7.88
2023-01-18T02:04:34.464Z,8.02
2023-01-18T02:07:04.315Z,6.82
2023-01-18T02:09:34.179Z,7.28
2023-01-18T02:12:04.054Z,7.68
2023-01-18T02:14:34.774Z,7.57
2023-01-18T02:17:25.839Z,8.57
2023-01-18T02:20:40.706Z,7.85
2023-01-18T02:24:02.380Z,8.23
2023-01-18T02:27:02.644Z,7.63
2023-01-18T02:30:10.229Z,8.10
2023-01-18T02:32:55.276Z,8.40
2023-01-18T02:35:39.557Z,8.30
2023-01-18T02:38:16.363Z,8.35
2023-01-18T02:41:00.909Z,8.23
2023-01-18T02:43:44.207Z,8.55
2023-01-18T02:46:34.172Z,7.95
2023-01-18T02:49:11.176Z,8.13
2023-01-18T02:51:41.973Z,8.48
2023-01-18T02:54:13.153Z,8.27
2023-01-18T02:56:47.707Z,7.70
2023-01-18T02:59:21.538Z,8.23
2023-01-18T03:01:58.834Z,8.37
2023-01-18T03:04:32.833Z,8.25
2023-01-18T03:07:12.067Z,8.07
2023-01-18T03:09:44.237Z,7.68
2023-01-18T03:12:21.997Z,7.80
2023-01-18T03:15:05.078Z,8.82
2023-01-18T03:17:43.653Z,8.35
2023-01-18T03:20:15.758Z,7.68
2023-01-18T03:23:04.865Z,8.05
2023-01-18T03:25:38.961Z,8.02
2023-01-18T03:28:25.823Z,7.72
2023-01-18T03:31:12.282Z,7.68
2023-01-18T03:33:50.828Z,7.35
2023-01-18T03:36:26.079Z,7.72
2023-01-18T03:39:00.624Z,7.03
2023-01-18T03:41:35.791Z,6.40
2023-01-18T03:44:12.231Z,7.30
2023-01-18T03:46:43.898Z,6.88
2023-01-18T03:49:17.000Z,6.55
2023-01-18T03:51:59.393Z,6.85
2023-01-18T03:54:38.304Z,7.10
2023-01-18T03:57:13.893Z,6.63
2023-01-18T03:59:43.788Z,7.15
2023-01-18T04:02:13.778Z,6.65
2023-01-18T04:04:46.261Z,7.22
2023-01-18T04:07:16.146Z,7.45
2023-01-18T04:09:45.988Z,7.28
2023-01-18T04:12:15.824Z,7.95
2023-01-18T04:14:45.726Z,7.88
2023-01-18T04:17:15.603Z,7.38
2023-01-18T04:19:48.162Z,7.22
2023-01-18T04:22:18.057Z,8.60
2023-01-18T04:24:48.038Z,7.43
2023-01-18T04:27:17.919Z,7.40
2023-01-18T04:29:47.767Z,7.22
2023-01-18T04:32:17.605Z,6.97
2023-01-18T04:34:50.029Z,6.85
2023-01-18T04:37:19.873Z,6.68
2023-01-18T04:39:49.950Z,6.57
2023-01-18T04:42:19.812Z,6.90
2023-01-18T04:44:49.668Z,6.53
2023-01-18T04:47:19.561Z,6.53
2023-01-18T04:49:52.118Z,5.85
2023-01-18T04:52:21.961Z,5.80
2023-01-18T04:54:51.965Z,5.63
2023-01-18T04:57:21.836Z,5.57
2023-01-18T04:59:51.664Z,5.35
2023-01-18T05:02:21.620Z,4.80
2023-01-18T05:04:54.116Z,4.95
2023-01-18T05:07:27.198Z,4.70
2023-01-18T05:09:57.056Z,5.10
2023-01-18T05:12:26.972Z,4.68
2023-01-18T05:14:56.848Z,4.80
2023-01-18T05:17:30.480Z,4.40
2023-01-18T05:20:04.535Z,4.85
2023-01-18T05:22:34.537Z,4.60
2023-01-18T05:25:04.377Z,5.05
2023-01-18T05:27:34.316Z,5.07
2023-01-18T05:30:06.681Z,4.20
2023-01-18T05:32:37.926Z,4.70
2023-01-18T05:35:11.630Z,4.28
2023-01-18T05:37:41.487Z,4.38
2023-01-18T05:40:14.291Z,3.80
2023-01-18T05:42:44.602Z,3.72
2023-01-18T05:45:14.992Z,4.13
2023-01-18T05:47:44.939Z,3.92
2023-01-18T05:50:17.897Z,4.38
2023-01-18T05:52:47.734Z,4.00
2023-01-18T05:55:17.863Z,3.55
2023-01-18T05:57:47.836Z,4.38
2023-01-18T06:00:18.268Z,4.38
2023-01-18T06:02:48.177Z,4.10
2023-01-18T06:05:20.742Z,4.55
2023-01-18T06:07:50.677Z,4.43
2023-01-18T06:10:21.601Z,3.67
2023-01-18T06:12:51.524Z,3.08
2023-01-18T06:15:21.638Z,3.50
2023-01-18T06:17:51.489Z,4.00
2023-01-18T06:20:24.021Z,4.63
2023-01-18T06:22:53.921Z,4.47
2023-01-18T06:25:23.747Z,4.53
2023-01-18T06:27:53.659Z,4.75
2023-01-18T06:30:23.856Z,4.03
2023-01-18T06:32:53.704Z,3.88
2023-01-18T06:35:26.125Z,3.92
2023-01-18T06:37:56.541Z,3.50
2023-01-18T06:40:26.377Z,3.90
2023-01-18T06:42:56.700Z,4.10
2023-01-18T06:45:26.916Z,3.90
2023-01-18T06:47:56.871Z,4.10
2023-01-18T06:50:29.460Z,4.95
2023-01-18T06:52:59.703Z,5.88
2023-01-18T06:55:29.798Z,5.60
2023-01-18T06:57:59.643Z,6.63
2023-01-18T07:00:29.736Z,9.00
2023-01-18T07:03:00.055Z,10.43
2023-01-18T07:05:32.806Z,8.45
2023-01-18T07:08:03.292Z,14.35
2023-01-18T07:10:33.240Z,12.57
2023-01-18T07:13:03.087Z,15.13
2023-01-18T07:15:32.920Z,13.13
2023-01-18T07:18:02.759Z,12.27
2023-01-18T07:20:35.232Z,10.95
2023-01-18T07:23:05.254Z,10.30
2023-01-18T07:25:35.162Z,9.45
2023-01-18T07:28:05.134Z,10.60
2023-01-18T07:30:34.954Z,10.05
2023-01-18T07:33:04.916Z,10.50
2023-01-18T07:35:37.348Z,8.27
2023-01-18T07:38:07.222Z,7.43
2023-01-18T07:40:37.089Z,8.10
2023-01-18T07:43:06.968Z,6.72
2023-01-18T07:45:37.936Z,8.15
2023-01-18T07:48:08.558Z,6.78
2023-01-18T07:50:40.987Z,6.07
2023-01-18T07:53:10.820Z,6.03
2023-01-18T07:55:41.824Z,5.75
2023-01-18T07:58:11.699Z,5.57
2023-01-18T08:00:41.541Z,5.75
2023-01-18T08:03:15.116Z,5.90
2023-01-18T08:05:48.811Z,6.03
2023-01-18T08:08:20.421Z,6.05
2023-01-18T08:10:50.293Z,5.18
2023-01-18T08:13:20.133Z,5.95
2023-01-18T08:15:50.032Z,4.60
2023-01-18T08:18:20.141Z,5.80
2023-01-18T08:20:54.997Z,5.70
2023-01-18T08:23:25.794Z,4.45
2023-01-18T08:25:55.860Z,5.05
2023-01-18T08:28:25.951Z,4.65
2023-01-18T08:30:56.081Z,5.18
2023-01-18T08:33:25.945Z,6.00
2023-01-18T08:35:58.400Z,5.53
2023-01-18T08:38:28.235Z,6.25
2023-01-18T08:40:58.082Z,5.43
2023-01-18T08:43:28.029Z,5.63
2023-01-18T08:45:57.888Z,6.13
2023-01-18T08:48:27.789Z,5.22
2023-01-18T08:51:03.995Z,5.45
2023-01-18T08:53:34.533Z,5.68
2023-01-18T08:56:08.501Z,5.10
2023-01-18T08:58:38.466Z,5.40
2023-01-18T09:01:09.371Z,5.60
2023-01-18T09:03:39.909Z,5.40
2023-01-18T09:06:13.166Z,6.00
2023-01-18T09:08:43.161Z,6.20
2023-01-18T09:11:13.612Z,6.30
2023-01-18T09:13:59.341Z,5.93
2023-01-18T09:16:30.901Z,5.18
2023-01-18T09:19:01.464Z,4.75
2023-01-18T09:21:34.397Z,5.00
2023-01-18T09:24:04.329Z,5.35
2023-01-18T09:26:34.222Z,5.30
2023-01-18T09:29:04.047Z,5.38
2023-01-18T09:31:34.000Z,5.75
2023-01-18T09:34:18.519Z,5.35
2023-01-18T09:36:54.083Z,6.10
2023-01-18T09:39:25.153Z,6.82
2023-01-18T09:41:58.121Z,6.82
2023-01-18T09:44:33.856Z,6.65
2023-01-18T09:47:08.015Z,6.43
2023-01-18T09:49:46.149Z,6.68
2023-01-18T09:52:42.208Z,6.60
2023-01-18T09:55:20.720Z,6.43
2023-01-18T09:58:08.124Z,6.78
2023-01-18T10:00:43.257Z,5.40
2023-01-18T10:03:20.917Z,6.28
2023-01-18T10:06:08.520Z,6.32
2023-01-18T10:08:53.362Z,6.45
2023-01-18T10:11:31.488Z,6.32
2023-01-18T10:14:09.605Z,9.30
2023-01-18T10:16:40.563Z,9.32
2023-01-18T10:19:21.497Z,6.85
2023-01-18T10:22:00.109Z,6.05
2023-01-18T10:24:55.728Z,5.47
2023-01-18T10:28:15.955Z,6.10
2023-01-18T10:31:04.393Z,5.82
2023-01-18T10:33:40.978Z,6.55
2023-01-18T10:36:17.402Z,6.50
2023-01-18T10:38:48.514Z,7.43
2023-01-18T10:41:25.762Z,7.85
2023-01-18T10:43:55.735Z,7.80
2023-01-18T10:46:26.429Z,6.93
2023-01-18T10:48:58.027Z,6.05
2023-01-18T10:51:35.267Z,6.85
2023-01-18T10:54:25.729Z,12.20
2023-01-18T10:57:09.953Z,9.38
2023-01-18T10:59:42.377Z,7.72
2023-01-18T11:02:27.484Z,7.50
2023-01-18T11:07:32.813Z,7.07
2023-01-18T11:10:09.701Z,8.68
2023-01-18T11:12:52.145Z,8.00
2023-01-18T11:15:32.177Z,7.75
2023-01-18T11:18:13.199Z,8.00
2023-01-18T11:20:50.641Z,7.97
2023-01-18T11:23:25.523Z,8.02
2023-01-18T11:26:00.855Z,7.82
2023-01-18T11:28:40.954Z,9.00
2023-01-18T11:31:14.805Z,7.82
2023-01-18T11:33:54.088Z,26.07
2023-01-18T11:36:37.145Z,16.55
2023-01-18T11:39:31.608Z,11.95
2023-01-18T11:42:20.787Z,9.15
2023-01-18T11:45:07.219Z,7.70
2023-01-18T11:47:50.905Z,7.35
2023-01-18T11:50:32.353Z,6.95
2023-01-18T11:53:14.786Z,28.92
2023-01-18T11:55:56.410Z,25.25
2023-01-18T11:58:29.958Z,15.60
2023-01-18T12:01:23.441Z,9.40
2023-01-18T12:04:02.859Z,8.20
2023-01-18T12:06:46.466Z,6.85
2023-01-18T12:09:30.502Z,7.32
2023-01-18T12:12:19.258Z,6.35
2023-01-18T12:15:06.434Z,7.45
2023-01-18T12:18:01.267Z,6.68
2023-01-18T12:20:52.424Z,7.03
2023-01-18T12:23:52.591Z,7.05
2023-01-18T12:26:50.329Z,8.65
2023-01-18T12:30:12.260Z,8.27
2023-01-18T12:33:34.310Z,7.43
2023-01-18T12:36:32.125Z,7.05
2023-01-18T12:39:10.890Z,7.50
2023-01-18T12:41:54.733Z,6.90
2023-01-18T12:45:02.242Z,7.65
2023-01-18T12:47:39.486Z,8.10
2023-01-18T12:50:24.133Z,8.20
2023-01-18T12:53:00.881Z,7.55
2023-01-18T12:55:34.994Z,7.85
2023-01-18T12:58:05.952Z,8.35
2023-01-18T13:00:41.028Z,9.05
2023-01-18T13:03:16.493Z,8.60
2023-01-18T13:05:56.744Z,10.20
2023-01-18T13:08:40.077Z,9.27
2023-01-18T13:11:17.323Z,9.43
2023-01-18T13:13:48.769Z,10.20
2023-01-18T13:16:34.719Z,9.90
2023-01-18T13:19:08.702Z,9.43
2023-01-18T13:21:56.339Z,9.65
2023-01-18T13:24:42.121Z,10.57
2023-01-18T13:27:14.152Z,9.15
2023-01-18T13:29:46.319Z,9.93
2023-01-18T13:32:27.812Z,9.63
2023-01-18T13:35:19.613Z,9.73
2023-01-18T13:37:56.432Z,11.05
2023-01-18T13:40:42.937Z,11.10
2023-01-18T13:43:37.253Z,11.50
2023-01-18T13:46:23.123Z,11.30
2023-01-18T13:48:55.526Z,12.85
2023-01-18T13:51:58.810Z,11.70
2023-01-18T13:55:07.772Z,11.38
2023-01-18T13:57:38.388Z,11.88
2023-01-18T14:00:24.864Z,12.18
2023-01-18T14:02:57.616Z,12.00
2023-01-18T14:05:31.285Z,12.70
2023-01-18T14:08:05.149Z,12.90
2023-01-18T14:10:41.144Z,11.63
2023-01-18T14:13:17.830Z,11.60
2023-01-18T14:15:53.214Z,12.18
2023-01-18T14:18:28.686Z,11.40
2023-01-18T14:21:11.364Z,10.73
2023-01-18T14:24:18.387Z,11.20
2023-01-18T14:26:51.622Z,10.38
2023-01-18T14:29:28.612Z,9.95
2023-01-18T14:32:02.163Z,9.82
2023-01-18T14:34:59.376Z,9.80
2023-01-18T14:37:32.459Z,10.65
2023-01-18T14:40:18.303Z,9.98
2023-01-18T14:42:55.550Z,10.40
2023-01-18T14:45:29.714Z,10.77
2023-01-18T14:48:03.195Z,11.90
2023-01-18T14:50:40.832Z,9.90
2023-01-18T14:53:17.357Z,9.10
2023-01-18T14:56:05.908Z,9.55
2023-01-18T14:58:42.945Z,9.13
2023-01-18T15:01:29.766Z,8.90
2023-01-18T15:04:02.009Z,9.90
2023-01-18T15:06:39.949Z,9.07
2023-01-18T15:09:12.539Z,8.65
2023-01-18T15:11:44.490Z,9.35
2023-01-18T15:14:22.263Z,9.40
2023-01-18T15:16:54.796Z,8.27
2023-01-18T15:19:27.200Z,8.85
2023-01-18T15:21:57.925Z,8.25
2023-01-18T15:24:29.295Z,8.85
2023-01-18T15:27:04.251Z,8.70
2023-01-18T15:29:38.927Z,8.63
2023-01-18T15:34:50.190Z,10.85
2023-01-18T15:37:25.418Z,13.52
2023-01-18T15:40:02.243Z,11.57
2023-01-18T15:42:36.957Z,10.88
2023-01-18T15:47:52.207Z,12.63
2023-01-18T15:50:24.174Z,12.80
2023-01-18T15:53:02.170Z,12.55
2023-01-18T15:55:38.659Z,13.50
2023-01-18T15:58:16.024Z,12.75
2023-01-18T16:00:58.061Z,13.23
2023-01-18T16:03:38.523Z,13.77
2023-01-18T16:06:17.808Z,15.23
2023-01-18T16:09:10.643Z,19.20
2023-01-18T16:11:52.062Z,21.50
2023-01-18T16:14:34.901Z,17.92
2023-01-18T16:17:15.935Z,19.20
2023-01-18T16:19:48.757Z,22.40
2023-01-18T16:22:26.327Z,23.83
2023-01-18T16:25:01.441Z,20.05
2023-01-18T16:27:34.547Z,18.33
2023-01-18T16:30:17.526Z,17.02
2023-01-18T16:32:50.345Z,15.93
2023-01-18T16:35:24.075Z,16.25
2023-01-18T16:37:54.331Z,16.42
2023-01-18T16:40:26.016Z,17.90
2023-01-18T16:43:02.462Z,19.77
2023-01-18T16:45:37.443Z,20.67
2023-01-18T16:48:17.242Z,19.42
2023-01-18T16:50:47.319Z,20.83
2023-01-18T16:53:17.508Z,22.02
2023-01-18T16:55:48.349Z,20.40
2023-01-18T16:58:21.428Z,17.02
2023-01-18T17:01:00.482Z,15.98
2023-01-18T17:03:33.051Z,16.63
2023-01-18T17:06:02.967Z,18.50
2023-01-18T17:08:33.399Z,18.08
2023-01-18T17:11:03.464Z,18.75
2023-01-18T17:13:33.339Z,18.48
2023-01-18T17:16:03.644Z,24.40
2023-01-18T17:18:36.145Z,25.50
2023-01-18T17:21:06.431Z,25.67
2023-01-18T17:23:36.500Z,32.58
2023-01-18T17:26:06.740Z,30.85
2023-01-18T17:28:36.714Z,30.58
2023-01-18T17:31:06.771Z,29.50
2023-01-18T17:33:40.472Z,25.90
2023-01-18T17:36:11.540Z,25.92
2023-01-18T17:38:41.450Z,21.08
2023-01-18T17:41:27.686Z,22.52
2023-01-18T17:43:58.557Z,19.88
2023-01-18T17:46:28.651Z,20.05
2023-01-18T17:49:01.294Z,21.70
2023-01-18T17:51:32.996Z,20.40
2023-01-18T17:54:10.253Z,21.63
2023-01-18T17:56:42.952Z,21.33
2023-01-18T17:59:12.824Z,22.02
2023-01-18T18:01:43.040Z,22.38
2023-01-18T18:04:15.500Z,23.23
2023-01-18T18:06:53.674Z,21.38
2023-01-18T18:09:24.388Z,20.88
2023-01-18T18:11:54.915Z,20.33
2023-01-18T18:14:25.667Z,20.45
2023-01-18T18:16:55.573Z,22.00
2023-01-18T18:19:28.393Z,22.95
2023-01-18T18:21:58.318Z,20.77
2023-01-18T18:24:28.490Z,20.08
2023-01-18T18:26:58.358Z,21.13
2023-01-18T18:29:28.522Z,19.02
2023-01-18T18:31:58.416Z,19.10
2023-01-18T18:34:31.085Z,19.23
2023-01-18T18:37:01.157Z,18.83
2023-01-18T18:39:31.092Z,18.98
2023-01-18T18:42:01.780Z,18.67
2023-01-18T18:44:31.804Z,19.70
2023-01-18T18:47:04.012Z,19.40
2023-01-18T18:49:37.351Z,19.10
2023-01-18T18:52:07.297Z,19.02
2023-01-18T18:54:37.352Z,19.65
2023-01-18T18:57:08.034Z,19.13
2023-01-18T18:59:37.997Z,18.60
2023-01-18T19:02:08.032Z,18.52
2023-01-18T19:04:40.574Z,16.73
2023-01-18T19:07:10.484Z,17.83
2023-01-18T19:09:40.371Z,18.27
2023-01-18T19:12:10.339Z,17.08
2023-01-18T19:14:40.258Z,18.67
2023-01-18T19:17:13.534Z,20.05
2023-01-18T19:19:46.431Z,19.92
2023-01-18T19:22:16.350Z,18.73
2023-01-18T19:24:46.774Z,20.75
2023-01-18T19:27:16.725Z,20.80
2023-01-18T19:29:46.697Z,21.23
2023-01-18T19:32:16.590Z,21.25
2023-01-18T19:34:49.033Z,21.50
2023-01-18T19:37:18.940Z,21.75
2023-01-18T19:39:50.065Z,22.80
2023-01-18T19:42:20.193Z,22.48
2023-01-18T19:44:51.918Z,22.23
2023-01-18T19:47:21.968Z,22.60
2023-01-18T19:49:55.810Z,20.77
2023-01-18T19:52:26.078Z,19.60
2023-01-18T19:54:56.037Z,21.35
2023-01-18T19:57:26.330Z,24.20
2023-01-18T19:59:57.167Z,23.02
2023-01-18T20:02:27.389Z,23.42
2023-01-18T20:04:59.994Z,30.30
2023-01-18T20:07:29.953Z,32.35
2023-01-18T20:10:00.046Z,34.25
2023-01-18T20:12:31.724Z,34.95
2023-01-18T20:15:02.451Z,36.10
2023-01-18T20:17:32.472Z,37.10
2023-01-18T20:20:05.077Z,38.70
2023-01-18T20:22:35.043Z,35.42
2023-01-18T20:25:05.254Z,38.60
2023-01-18T20:27:35.194Z,42.70
2023-01-18T20:30:05.834Z,39.08
2023-01-18T20:32:36.018Z,44.13
2023-01-18T20:35:09.498Z,41.80
2023-01-18T20:37:39.673Z,39.35
2023-01-18T20:40:12.283Z,41.55
2023-01-18T20:42:42.316Z,40.00
2023-01-18T20:45:12.959Z,37.90
2023-01-18T20:47:42.887Z,36.33
2023-01-18T20:50:16.375Z,35.17
2023-01-18T20:52:46.562Z,33.17
2023-01-18T20:55:16.700Z,31.38
2023-01-18T20:57:46.755Z,31.60
2023-01-18T21:00:19.624Z,33.20
2023-01-18T21:02:50.435Z,37.78
2023-01-18T21:05:23.014Z,39.47
2023-01-18T21:07:52.856Z,40.80
2023-01-18T21:10:23.082Z,34.35
2023-01-18T21:12:52.925Z,28.30
2023-01-18T21:15:22.795Z,30.95
2023-01-18T21:17:52.650Z,28.00
2023-01-18T21:20:25.104Z,29.65
2023-01-18T21:22:55.073Z,24.85
2023-01-18T21:25:24.980Z,24.45
2023-01-18T21:27:55.248Z,23.67
2023-01-18T21:30:25.112Z,22.77
2023-01-18T21:32:55.007Z,22.70
2023-01-18T21:35:29.851Z,21.42
2023-01-18T21:38:02.922Z,23.45
2023-01-18T21:40:33.101Z,23.17
2023-01-18T21:43:15.465Z,21.98
2023-01-18T21:45:57.969Z,22.95
2023-01-18T21:48:29.901Z,23.67
2023-01-18T21:51:18.983Z,22.95
2023-01-18T21:54:01.500Z,23.60
2023-01-18T21:56:31.633Z,22.88
2023-01-18T21:59:02.722Z,22.20
2023-01-18T22:01:38.635Z,22.58
2023-01-18T22:04:24.813Z,24.60
2023-01-18T22:06:59.350Z,26.70
2023-01-18T22:12:00.218Z,26.40
2023-01-18T22:14:30.137Z,27.05
2023-01-18T22:17:00.164Z,28.02
2023-01-18T22:19:30.065Z,26.60
2023-01-18T22:22:02.825Z,26.10
2023-01-18T22:24:33.002Z,25.67
2023-01-18T22:27:02.873Z,25.20
2023-01-18T22:29:32.777Z,24.90
2023-01-18T22:32:02.786Z,25.65
2023-01-18T22:34:32.693Z,25.17
2023-01-18T22:37:05.702Z,25.45
2023-01-18T22:39:35.578Z,24.23
2023-01-18T22:42:05.444Z,24.48
2023-01-18T22:44:35.665Z,24.30
2023-01-18T22:47:05.535Z,24.58
2023-01-18T22:49:35.454Z,24.35
2023-01-18T22:52:08.031Z,23.75
2023-01-18T22:54:37.915Z,24.23
2023-01-18T22:57:07.845Z,22.80
2023-01-18T22:59:37.716Z,23.52
2023-01-18T23:02:07.549Z,22.45
2023-01-18T23:04:37.905Z,23.63
2023-01-18T23:07:10.396Z,23.23
2023-01-18T23:09:40.304Z,21.98
2023-01-18T23:12:10.434Z,20.63
2023-01-18T23:14:52.819Z,21.85
2023-01-18T23:17:35.447Z,21.67
2023-01-18T23:20:06.063Z,22.05
2023-01-18T23:22:38.584Z,22.27
2023-01-18T23:25:09.638Z,20.60
2023-01-18T23:27:39.503Z,21.08
2023-01-18T23:30:11.737Z,21.25
2023-01-18T23:32:41.583Z,21.88
2023-01-18T23:35:12.154Z,21.35
2023-01-18T23:37:44.572Z,20.92
2023-01-18T23:40:28.055Z,21.02
2023-01-18T23:43:10.413Z,20.63
2023-01-18T23:45:52.811Z,20.88
2023-01-18T23:48:35.861Z,20.73
2023-01-18T23:51:19.438Z,21.58
2023-01-18T23:54:04.877Z,18.98
2023-01-18T23:56:35.087Z,19.98
2023-01-18T23:59:05.081Z,18.88
